createdAt,value
2024-01-28T00:01:59.778Z,101840.75
2024-01-28T00:05:01.944Z,101843.63
2024-01-28T00:08:07.711Z,101856.41
2024-01-28T00:11:09.932Z,101850.91
2024-01-28T00:14:12.214Z,101861.38
2024-01-28T00:17:14.416Z,101864.72
2024-01-28T00:20:16.588Z,101849.31
2024-01-28T00:23:18.961Z,101869.81
2024-01-28T00:26:21.542Z,101863.13
2024-01-28T00:29:30.208Z,101867.50
2024-01-28T00:32:32.835Z,101872.81
2024-01-28T00:35:35.319Z,101864.84
2024-01-28T00:38:38.249Z,101875.50
2024-01-28T00:41:40.860Z,101880.16
2024-01-28T00:44:43.143Z,101887.31
2024-01-28T00:47:45.896Z,101902.47
2024-01-28T00:50:48.120Z,101901.47
2024-01-28T00:53:50.259Z,101897.94
2024-01-28T00:56:57.397Z,101898.63
2024-01-28T00:59:59.622Z,101897.94
2024-01-28T01:03:02.428Z,101904.94
2024-01-28T01:06:07.229Z,101899.81
2024-01-28T01:09:09.693Z,101904.78
2024-01-28T01:12:11.949Z,101887.84
2024-01-28T01:15:14.282Z,101895.66
2024-01-28T01:18:16.878Z,101906.13
2024-01-28T01:21:19.200Z,101886.50
2024-01-28T01:24:21.607Z,101905.59
2024-01-28T01:27:23.878Z,101901.13
2024-01-28T01:30:26.176Z,101909.09
2024-01-28T01:33:28.658Z,101898.97
2024-01-28T01:36:31.529Z,101901.28
2024-01-28T01:39:33.984Z,101896.81
2024-01-28T01:42:36.399Z,101916.41
2024-01-28T01:45:38.725Z,101912.09
2024-01-28T01:48:41.132Z,101911.44
2024-01-28T01:51:45.548Z,101905.63
2024-01-28T01:54:48.679Z,101911.25
2024-01-28T01:57:51.789Z,101913.91
2024-01-28T02:00:54.112Z,101912.59
2024-01-28T02:03:58.895Z,101917.72
2024-01-28T02:07:01.389Z,101901.31
2024-01-28T02:10:07.352Z,101926.72
2024-01-28T02:13:09.512Z,101912.28
2024-01-28T02:16:11.704Z,101920.63
2024-01-28T02:19:13.890Z,101907.81
2024-01-28T02:22:16.115Z,101911.31
2024-01-28T02:25:18.338Z,101928.06
2024-01-28T02:28:22.545Z,101913.28
2024-01-28T02:31:24.825Z,101936.88
2024-01-28T02:34:27.232Z,101935.06
2024-01-28T02:37:29.624Z,101937.56
2024-01-28T02:40:32.938Z,101946.34
2024-01-28T02:43:35.906Z,101936.22
2024-01-28T02:46:38.156Z,101939.06
2024-01-28T02:49:41.110Z,101958.50
2024-01-28T02:52:43.397Z,101954.19
2024-01-28T02:55:45.533Z,101942.88
2024-01-28T02:58:47.785Z,101946.38
2024-01-28T03:01:50.554Z,101945.72
2024-01-28T03:04:52.848Z,101965.81
2024-01-28T03:07:55.109Z,101969.16
2024-01-28T03:10:57.257Z,101969.66
2024-01-28T03:13:59.390Z,101952.38
2024-01-28T03:17:02.203Z,101963.50
2024-01-28T03:20:04.997Z,101964.50
2024-01-28T03:23:07.155Z,101931.75
2024-01-28T03:26:12.683Z,101955.34
2024-01-28T03:29:14.858Z,101961.34
2024-01-28T03:32:17.180Z,101970.00
2024-01-28T03:35:19.358Z,101964.97
2024-01-28T03:38:21.603Z,101976.97
2024-01-28T03:41:23.766Z,101975.78
2024-01-28T03:44:25.991Z,101970.47
2024-01-28T03:47:28.204Z,101943.72
2024-01-28T03:50:30.481Z,101975.13
2024-01-28T03:53:33.012Z,101967.84
2024-01-28T03:56:35.749Z,101968.66
2024-01-28T03:59:41.388Z,101954.84
2024-01-28T04:02:43.647Z,101972.16
2024-01-28T04:05:45.911Z,101986.63
2024-01-28T04:08:48.147Z,101976.31
2024-01-28T04:11:50.410Z,101964.16
2024-01-28T04:14:52.648Z,101964.16
2024-01-28T04:17:54.887Z,101975.66
2024-01-28T04:20:57.180Z,101966.16
2024-01-28T04:23:59.464Z,101974.00
2024-01-28T04:27:01.616Z,101986.78
2024-01-28T04:30:05.397Z,101983.81
2024-01-28T04:33:07.825Z,101983.78
2024-01-28T04:36:10.121Z,101991.94
2024-01-28T04:39:12.444Z,101995.78
2024-01-28T04:42:14.697Z,101994.63
2024-01-28T04:45:17.444Z,101994.44
2024-01-28T04:48:20.424Z,102003.38
2024-01-28T04:51:22.849Z,102002.41
2024-01-28T04:54:25.122Z,102004.06
2024-01-28T04:57:28.244Z,101997.06
2024-01-28T05:00:30.556Z,102013.25
2024-01-28T05:03:32.987Z,102015.53
2024-01-28T05:06:38.375Z,102011.56
2024-01-28T05:09:40.662Z,102018.53
2024-01-28T05:12:42.843Z,102010.19
2024-01-28T05:15:45.225Z,102015.53
2024-01-28T05:18:47.631Z,102028.50
2024-01-28T05:21:51.220Z,102021.66
2024-01-28T05:24:55.150Z,102026.31
2024-01-28T05:27:57.327Z,102028.66
2024-01-28T05:30:59.532Z,102015.88
2024-01-28T05:34:04.827Z,102034.69
2024-01-28T05:37:07.116Z,102050.28
2024-01-28T05:40:12.602Z,102043.81
2024-01-28T05:43:14.775Z,102055.44
2024-01-28T05:46:16.978Z,102057.91
2024-01-28T05:49:19.170Z,102050.41
2024-01-28T05:52:21.397Z,102055.25
2024-01-28T05:55:23.591Z,102067.38
2024-01-28T05:58:26.530Z,102077.34
2024-01-28T06:01:28.786Z,102079.34
2024-01-28T06:04:31.326Z,102081.97
2024-01-28T06:07:33.586Z,102085.13
2024-01-28T06:10:36.129Z,102072.13
2024-01-28T06:13:38.388Z,102077.75
2024-01-28T06:16:40.621Z,102104.94
2024-01-28T06:19:42.924Z,102099.44
2024-01-28T06:22:45.133Z,102104.84
2024-01-28T06:25:47.378Z,102103.09
2024-01-28T06:28:49.725Z,102102.09
2024-01-28T06:31:52.010Z,102110.91
2024-01-28T06:34:54.378Z,102102.22
2024-01-28T06:37:56.810Z,102115.19
2024-01-28T06:40:59.654Z,102115.47
2024-01-28T06:44:04.545Z,102108.25
2024-01-28T06:47:07.638Z,102119.03
2024-01-28T06:50:10.243Z,102114.03
2024-01-28T06:53:12.528Z,102116.94
2024-01-28T06:56:14.920Z,102114.28
2024-01-28T06:59:19.682Z,102124.28
2024-01-28T07:02:25.449Z,102110.28
2024-01-28T07:05:27.775Z,102116.31
2024-01-28T07:08:30.135Z,102126.00
2024-01-28T07:11:32.451Z,102132.69
2024-01-28T07:14:34.564Z,102128.53
2024-01-28T07:17:36.753Z,102124.03
2024-01-28T07:20:38.938Z,102144.03
2024-01-28T07:23:41.588Z,102138.03
2024-01-28T07:26:44.466Z,102143.69
2024-01-28T07:29:46.713Z,102137.03
2024-01-28T07:32:49.097Z,102140.84
2024-01-28T07:35:51.285Z,102152.19
2024-01-28T07:38:53.494Z,102139.38
2024-01-28T07:41:55.586Z,102148.34
2024-01-28T07:44:57.827Z,102135.53
2024-01-28T07:48:00.167Z,102155.38
2024-01-28T07:51:02.586Z,102157.34
2024-01-28T07:54:04.811Z,102163.69
2024-01-28T07:57:07.558Z,102157.03
2024-01-28T08:00:11.450Z,102167.50
2024-01-28T08:03:16.361Z,102179.81
2024-01-28T08:06:18.568Z,102182.34
2024-01-28T08:09:20.901Z,102176.66
2024-01-28T08:12:23.181Z,102166.50
2024-01-28T08:15:25.375Z,102186.50
2024-01-28T08:18:27.667Z,102185.66
2024-01-28T08:21:29.947Z,102187.84
2024-01-28T08:24:32.549Z,102193.31
2024-01-28T08:27:34.815Z,102167.00
2024-01-28T08:30:37.089Z,102173.31
2024-01-28T08:33:39.332Z,102163.19
2024-01-28T08:36:41.650Z,102188.34
2024-01-28T08:39:43.990Z,102203.00
2024-01-28T08:42:46.185Z,102203.31
2024-01-28T08:45:48.500Z,102208.13
2024-01-28T08:48:50.817Z,102202.28
2024-01-28T08:51:53.969Z,102208.28
2024-01-28T08:54:56.253Z,102206.81
2024-01-28T08:57:58.638Z,102204.81
2024-01-28T09:01:00.955Z,102208.81
2024-01-28T09:04:03.293Z,102217.81
2024-01-28T09:07:05.623Z,102220.47
2024-01-28T09:10:08.346Z,102220.63
2024-01-28T09:13:10.586Z,102221.41
2024-01-28T09:16:12.831Z,102233.19
2024-01-28T09:19:15.049Z,102228.06
2024-01-28T09:22:17.296Z,102217.84
2024-01-28T09:25:19.470Z,102230.34
2024-01-28T09:28:21.600Z,102227.38
2024-01-28T09:31:23.896Z,102239.41
2024-01-28T09:34:26.538Z,102259.72
2024-01-28T09:37:28.860Z,102258.06
2024-01-28T09:40:31.072Z,102261.03
2024-01-28T09:43:33.266Z,102266.72
2024-01-28T09:46:35.700Z,102251.03
2024-01-28T09:49:41.141Z,102254.16
2024-01-28T09:52:43.475Z,102260.50
2024-01-28T09:55:45.674Z,102270.47
2024-01-28T09:58:48.511Z,102269.09
2024-01-28T10:01:53.681Z,102262.81
2024-01-28T10:04:57.482Z,102272.63
2024-01-28T10:08:05.445Z,102252.63
2024-01-28T10:11:08.066Z,102267.78
2024-01-28T10:14:11.821Z,102256.16
2024-01-28T10:17:14.773Z,102236.09
2024-01-28T10:20:18.003Z,102250.38
2024-01-28T10:23:20.236Z,102254.34
2024-01-28T10:26:22.478Z,102246.97
2024-01-28T10:29:26.854Z,102243.72
2024-01-28T10:32:29.116Z,102242.50
2024-01-28T10:35:31.383Z,102242.69
2024-01-28T10:38:38.877Z,102232.47
2024-01-28T10:41:44.314Z,102232.38
2024-01-28T10:44:49.325Z,102225.56
2024-01-28T10:47:55.886Z,102227.81
2024-01-28T10:50:59.331Z,102214.44
2024-01-28T10:54:05.579Z,102226.56
2024-01-28T10:57:13.866Z,102219.00
2024-01-28T11:00:21.923Z,102207.09
2024-01-28T11:03:24.504Z,102215.38
2024-01-28T11:06:33.443Z,102211.97
2024-01-28T11:09:36.310Z,102210.75
2024-01-28T11:12:38.632Z,102219.81
2024-01-28T11:15:43.354Z,102211.06
2024-01-28T11:19:07.235Z,102211.00
2024-01-28T11:22:17.137Z,102207.38
2024-01-28T11:25:25.456Z,102213.13
2024-01-28T11:28:28.674Z,102207.69
2024-01-28T11:31:37.365Z,102208.88
2024-01-28T11:34:43.475Z,102213.09
2024-01-28T11:37:58.779Z,102208.66
2024-01-28T11:41:01.372Z,102204.41
2024-01-28T11:44:04.265Z,102198.13
2024-01-28T11:47:08.126Z,102194.50
2024-01-28T11:50:12.828Z,102187.81
2024-01-28T11:53:16.365Z,102192.22
2024-01-28T11:56:18.567Z,102194.41
2024-01-28T11:59:20.739Z,102196.59
2024-01-28T12:02:23.502Z,102195.00
2024-01-28T12:05:25.913Z,102179.34
2024-01-28T12:08:28.854Z,102179.44
2024-01-28T12:11:31.737Z,102180.34
2024-01-28T12:14:34.289Z,102186.16
2024-01-28T12:17:40.380Z,102185.38
2024-01-28T12:20:42.600Z,102187.72
2024-01-28T12:23:46.832Z,102186.34
2024-01-28T12:26:49.022Z,102178.94
2024-01-28T12:29:51.209Z,102174.88
2024-01-28T12:32:53.684Z,102172.22
2024-01-28T12:35:55.907Z,102154.66
2024-01-28T12:38:58.150Z,102170.47
2024-01-28T12:42:00.415Z,102168.44
2024-01-28T12:45:02.712Z,102168.22
2024-01-28T12:48:05.679Z,102168.06
2024-01-28T12:51:08.355Z,102167.06
2024-01-28T12:54:10.738Z,102170.38
2024-01-28T12:57:14.614Z,102160.03
2024-01-28T13:00:18.336Z,102167.94
2024-01-28T13:03:21.486Z,102163.63
2024-01-28T13:06:27.040Z,102162.19
2024-01-28T13:09:30.072Z,102165.50
2024-01-28T13:12:38.211Z,102172.34
2024-01-28T13:15:40.478Z,102179.00
2024-01-28T13:18:44.607Z,102185.63
2024-01-28T13:21:47.249Z,102184.56
2024-01-28T13:24:53.685Z,102184.81
2024-01-28T13:27:56.112Z,102184.19
2024-01-28T13:30:59.486Z,102174.25
2024-01-28T13:34:02.001Z,102172.81
2024-01-28T13:37:07.490Z,102167.44
2024-01-28T13:40:10.303Z,102172.63
2024-01-28T13:43:12.535Z,102171.41
2024-01-28T13:46:15.066Z,102178.66
2024-01-28T13:49:17.389Z,102181.78
2024-01-28T13:52:19.613Z,102169.34
2024-01-28T13:55:21.831Z,102159.84
2024-01-28T13:58:23.974Z,102173.50
2024-01-28T14:01:29.692Z,102175.16
2024-01-28T14:04:32.225Z,102171.47
2024-01-28T14:07:34.495Z,102172.94
2024-01-28T14:10:36.712Z,102166.03
2024-01-28T14:13:38.958Z,102176.19
2024-01-28T14:16:41.151Z,102183.91
2024-01-28T14:19:43.489Z,102173.75
2024-01-28T14:22:45.709Z,102167.75
2024-01-28T14:25:49.316Z,102179.13
2024-01-28T14:28:53.915Z,102165.22
2024-01-28T14:31:56.053Z,102177.25
2024-01-28T14:34:58.357Z,102175.16
2024-01-28T14:38:00.642Z,102174.78
2024-01-28T14:41:02.868Z,102181.41
2024-01-28T14:44:05.834Z,102182.63
2024-01-28T14:47:08.642Z,102174.78
2024-01-28T14:50:11.123Z,102175.00
2024-01-28T14:53:13.335Z,102166.25
2024-01-28T14:56:15.590Z,102169.34
2024-01-28T14:59:17.774Z,102179.47
2024-01-28T15:02:20.830Z,102185.25
2024-01-28T15:05:23.175Z,102190.63
2024-01-28T15:08:25.350Z,102173.81
2024-01-28T15:11:27.529Z,102188.09
2024-01-28T15:14:29.777Z,102184.56
2024-01-28T15:17:31.983Z,102185.97
2024-01-28T15:20:34.159Z,102195.66
2024-01-28T15:23:39.029Z,102176.94
2024-01-28T15:26:41.555Z,102172.97
2024-01-28T15:29:46.612Z,102190.69
2024-01-28T15:32:48.987Z,102188.47
2024-01-28T15:35:53.670Z,102201.16
2024-01-28T15:38:55.791Z,102192.09
2024-01-28T15:41:58.462Z,102178.31
2024-01-28T15:45:00.805Z,102205.28
2024-01-28T15:48:03.484Z,102204.56
2024-01-28T15:51:05.886Z,102200.47
2024-01-28T15:54:10.228Z,102183.91
2024-01-28T15:57:12.632Z,102210.88
2024-01-28T16:00:15.310Z,102216.44
2024-01-28T16:03:17.572Z,102223.34
2024-01-28T16:06:19.900Z,102236.75
2024-01-28T16:09:22.270Z,102235.81
2024-01-28T16:12:25.500Z,102223.84
2024-01-28T16:15:28.295Z,102228.34
2024-01-28T16:18:30.802Z,102211.78
2024-01-28T16:21:33.134Z,102237.63
2024-01-28T16:24:35.438Z,102227.66
2024-01-28T16:27:37.885Z,102249.06
2024-01-28T16:30:40.398Z,102250.94
2024-01-28T16:33:42.593Z,102240.28
2024-01-28T16:36:45.003Z,102246.47
2024-01-28T16:39:49.376Z,102270.94
2024-01-28T16:42:51.817Z,102274.50
2024-01-28T16:45:54.072Z,102268.28
2024-01-28T16:48:56.428Z,102271.47
2024-01-28T16:51:59.133Z,102269.53
2024-01-28T16:55:01.407Z,102262.09
2024-01-28T16:58:05.158Z,102274.13
2024-01-28T17:01:10.194Z,102271.13
2024-01-28T17:04:12.552Z,102276.19
2024-01-28T17:07:14.861Z,102276.53
2024-01-28T17:10:17.299Z,102252.22
2024-01-28T17:13:19.483Z,102253.91
2024-01-28T17:16:21.916Z,102258.56
2024-01-28T17:19:24.101Z,102254.28
2024-01-28T17:22:26.398Z,102274.41
2024-01-28T17:25:29.570Z,102279.09
2024-01-28T17:28:31.796Z,102253.47
2024-01-28T17:31:35.755Z,102281.47
2024-01-28T17:34:38.851Z,102284.81
2024-01-28T17:37:42.747Z,102280.16
2024-01-28T17:40:45.376Z,102288.88
2024-01-28T17:43:50.700Z,102296.28
2024-01-28T17:46:53.711Z,102283.63
2024-01-28T17:49:56.035Z,102290.47
2024-01-28T17:53:01.312Z,102290.78
2024-01-28T17:56:03.674Z,102306.59
2024-01-28T17:59:05.871Z,102306.78
2024-01-28T18:02:08.119Z,102311.81
2024-01-28T18:05:10.461Z,102318.97
2024-01-28T18:08:12.638Z,102306.81
2024-01-28T18:11:16.701Z,102323.31
2024-01-28T18:14:18.886Z,102308.31
2024-01-28T18:17:21.216Z,102324.16
2024-01-28T18:20:24.744Z,102307.47
2024-01-28T18:23:26.992Z,102333.31
2024-01-28T18:26:29.856Z,102341.97
2024-01-28T18:29:32.852Z,102344.31
2024-01-28T18:32:35.126Z,102345.97
2024-01-28T18:35:37.349Z,102343.66
2024-01-28T18:38:40.013Z,102339.81
2024-01-28T18:41:42.189Z,102336.44
2024-01-28T18:44:46.261Z,102352.44
2024-01-28T18:47:48.556Z,102357.25
2024-01-28T18:50:52.124Z,102359.06
2024-01-28T18:53:54.817Z,102360.19
2024-01-28T18:56:57.015Z,102356.03
2024-01-28T18:59:59.144Z,102358.84
2024-01-28T19:03:07.043Z,102355.81
2024-01-28T19:06:10.575Z,102352.16
2024-01-28T19:09:14.115Z,102351.44
2024-01-28T19:12:16.681Z,102377.78
2024-01-28T19:15:19.012Z,102376.44
2024-01-28T19:18:23.644Z,102347.06
2024-01-28T19:21:25.944Z,102370.88
2024-01-28T19:24:28.253Z,102363.69
2024-01-28T19:27:30.568Z,102376.22
2024-01-28T19:30:32.811Z,102381.72
2024-01-28T19:33:35.367Z,102378.66
2024-01-28T19:36:37.764Z,102371.34
2024-01-28T19:39:41.119Z,102373.50
2024-01-28T19:42:43.434Z,102380.19
2024-01-28T19:45:48.007Z,102382.66
2024-01-28T19:48:50.352Z,102385.59
2024-01-28T19:51:52.648Z,102390.56
2024-01-28T19:54:55.087Z,102387.84
2024-01-28T19:57:57.441Z,102383.81
2024-01-28T20:00:59.765Z,102404.97
2024-01-28T20:04:02.203Z,102400.41
2024-01-28T20:07:04.613Z,102398.09
2024-01-28T20:10:08.439Z,102400.75
2024-01-28T20:13:10.669Z,102402.09
2024-01-28T20:16:12.908Z,102401.59
2024-01-28T20:19:18.534Z,102407.09
2024-01-28T20:22:20.765Z,102404.59
2024-01-28T20:25:22.946Z,102416.19
2024-01-28T20:28:25.234Z,102413.66
2024-01-28T20:31:27.730Z,102408.16
2024-01-28T20:34:29.960Z,102405.25
2024-01-28T20:37:32.250Z,102406.41
2024-01-28T20:40:34.811Z,102419.16
2024-01-28T20:43:37.060Z,102420.47
2024-01-28T20:46:41.825Z,102420.09
2024-01-28T20:49:44.519Z,102403.38
2024-01-28T20:52:46.726Z,102412.06
2024-01-28T20:55:49.344Z,102422.41
2024-01-28T20:58:51.642Z,102414.63
2024-01-28T21:01:54.113Z,102418.53
2024-01-28T21:04:56.355Z,102418.97
2024-01-28T21:07:58.925Z,102418.66
2024-01-28T21:11:08.450Z,102420.78
2024-01-28T21:14:11.576Z,102417.75
2024-01-28T21:17:13.787Z,102419.81
2024-01-28T21:20:15.984Z,102431.16
2024-01-28T21:23:22.804Z,102430.06
2024-01-28T21:26:25.011Z,102440.78
2024-01-28T21:29:32.961Z,102454.38
2024-01-28T21:32:35.308Z,102437.34
2024-01-28T21:35:37.577Z,102441.38
2024-01-28T21:38:39.780Z,102460.22
2024-01-28T21:41:42.039Z,102441.22
2024-01-28T21:44:44.424Z,102451.25
2024-01-28T21:47:46.584Z,102440.94
2024-01-28T21:50:48.823Z,102469.19
2024-01-28T21:53:51.054Z,102465.03
2024-01-28T21:56:55.925Z,102476.34
2024-01-28T21:59:58.082Z,102480.41
2024-01-28T22:03:00.381Z,102483.47
2024-01-28T22:06:02.911Z,102471.84
2024-01-28T22:09:05.194Z,102479.69
2024-01-28T22:12:07.950Z,102477.31
2024-01-28T22:15:10.357Z,102492.16
2024-01-28T22:18:12.545Z,102483.16
2024-01-28T22:21:16.109Z,102484.78
2024-01-28T22:24:18.725Z,102487.44
2024-01-28T22:27:21.380Z,102499.13
2024-01-28T22:30:24.935Z,102495.50
2024-01-28T22:33:27.420Z,102488.31
2024-01-28T22:36:29.767Z,102495.19
2024-01-28T22:39:32.488Z,102493.38
2024-01-28T22:42:34.732Z,102468.13
2024-01-28T22:45:36.941Z,102499.13
2024-01-28T22:48:39.284Z,102491.81
2024-01-28T22:51:41.652Z,102500.66
2024-01-28T22:54:43.974Z,102506.50
2024-01-28T22:57:46.150Z,102506.97
2024-01-28T23:00:48.460Z,102507.13
2024-01-28T23:03:50.866Z,102496.88
2024-01-28T23:06:53.267Z,102509.16
2024-01-28T23:09:55.527Z,102510.69
2024-01-28T23:12:58.314Z,102492.22
2024-01-28T23:16:00.465Z,102483.56
2024-01-28T23:19:02.888Z,102498.53
2024-01-28T23:22:05.234Z,102497.41
2024-01-28T23:25:07.470Z,102488.13
2024-01-28T23:28:09.770Z,102498.94
2024-01-28T23:31:12.005Z,102505.06
2024-01-28T23:34:15.814Z,102493.19
2024-01-28T23:37:18.534Z,102494.03
2024-01-28T23:40:20.710Z,102488.47
2024-01-28T23:43:22.814Z,102486.81
2024-01-28T23:46:24.944Z,102489.09
2024-01-28T23:49:27.218Z,102492.75
2024-01-28T23:52:29.522Z,102498.22
2024-01-28T23:55:31.685Z,102484.78
2024-01-28T23:58:33.864Z,102483.72
